EZS1589 LSGG-EDDB
Flight info
| Callsign | EZS1589 |
|---|---|
| Flight time | 1h 21m |
| Altitude | 37000 |
| Route | SOSAL N871 KORED DCT BERSU DCT DITON DCT LOKTA DCT TIKNI T279 TAMEB T278 KLF KLF1R |
| Aircraft | A320/M-SDE2E3FGHIJ1RWXYZ/LB1 |
Departure
| Time | 2026-05-05 20:36 |
|---|---|
| Airport | Geneva International Airport (LSGG) |
Arrival
| Time | 2026-05-05 21:57 |
|---|---|
| Airport | Berlin Brandenburg Airport (EDDB) |
| Time | Latitude | Longitude | Altitude | Speed | Heading |
|---|---|---|---|---|---|
| 2026-05-05 20:05 | 46.23006 | 6.10531 | 1400 ft | 0 kts | 135° |
| 2026-05-05 20:24 | 46.23010 | 6.10526 | 1406 ft | 2 kts | 135° |
| 2026-05-05 20:25 | 46.23023 | 6.10507 | 1402 ft | 3 kts | 135° |
| 2026-05-05 20:25 | 46.23035 | 6.10490 | 1400 ft | 3 kts | 110° |
| 2026-05-05 20:25 | 46.23035 | 6.10469 | 1397 ft | 3 kts | 54° |
| 2026-05-05 20:25 | 46.23022 | 6.10447 | 1401 ft | 3 kts | 44° |
| 2026-05-05 20:26 | 46.23015 | 6.10438 | 1401 ft | 0 kts | 45° |
| 2026-05-05 20:28 | 46.23020 | 6.10444 | 1401 ft | 4 kts | 45° |
| 2026-05-05 20:28 | 46.23064 | 6.10509 | 1406 ft | 14 kts | 45° |
| 2026-05-05 20:28 | 46.23130 | 6.10606 | 1397 ft | 13 kts | 45° |
| 2026-05-05 20:28 | 46.23194 | 6.10649 | 1398 ft | 10 kts | 333° |
| 2026-05-05 20:29 | 46.23236 | 6.10588 | 1396 ft | 8 kts | 315° |
| 2026-05-05 20:29 | 46.23270 | 6.10540 | 1397 ft | 6 kts | 315° |
| 2026-05-05 20:29 | 46.23316 | 6.10521 | 1392 ft | 10 kts | 40° |
| 2026-05-05 20:29 | 46.23378 | 6.10610 | 1397 ft | 15 kts | 45° |
| 2026-05-05 20:30 | 46.23451 | 6.10708 | 1386 ft | 14 kts | 43° |
| 2026-05-05 20:30 | 46.23512 | 6.10799 | 1387 ft | 12 kts | 46° |
| 2026-05-05 20:30 | 46.23565 | 6.10876 | 1388 ft | 10 kts | 45° |
| 2026-05-05 20:30 | 46.23611 | 6.10941 | 1389 ft | 8 kts | 45° |
| 2026-05-05 20:31 | 46.23649 | 6.10997 | 1385 ft | 7 kts | 45° |
| 2026-05-05 20:31 | 46.23681 | 6.11043 | 1387 ft | 13 kts | 45° |
| 2026-05-05 20:31 | 46.23774 | 6.11181 | 1380 ft | 24 kts | 45° |
| 2026-05-05 20:31 | 46.23894 | 6.11359 | 1374 ft | 26 kts | 45° |
| 2026-05-05 20:32 | 46.24027 | 6.11555 | 1370 ft | 29 kts | 45° |
| 2026-05-05 20:32 | 46.24174 | 6.11769 | 1364 ft | 30 kts | 45° |
| 2026-05-05 20:32 | 46.24298 | 6.11951 | 1363 ft | 23 kts | 45° |
| 2026-05-05 20:32 | 46.24407 | 6.12111 | 1369 ft | 21 kts | 45° |
| 2026-05-05 20:33 | 46.24505 | 6.12257 | 1372 ft | 20 kts | 46° |
| 2026-05-05 20:33 | 46.24606 | 6.12404 | 1370 ft | 22 kts | 46° |
| 2026-05-05 20:33 | 46.24724 | 6.12579 | 1362 ft | 26 kts | 46° |
| 2026-05-05 20:33 | 46.24844 | 6.12689 | 1363 ft | 14 kts | 18° |
| 2026-05-05 20:34 | 46.24919 | 6.12724 | 1365 ft | 9 kts | 18° |
| 2026-05-05 20:34 | 46.24966 | 6.12725 | 1368 ft | 8 kts | 340° |
| 2026-05-05 20:34 | 46.24997 | 6.12650 | 1371 ft | 11 kts | 246° |
| 2026-05-05 20:34 | 46.24959 | 6.12589 | 1371 ft | 6 kts | 225° |
| 2026-05-05 20:35 | 46.24936 | 6.12555 | 1372 ft | 4 kts | 225° |
| 2026-05-05 20:35 | 46.24915 | 6.12524 | 1372 ft | 10 kts | 226° |
| 2026-05-05 20:35 | 46.24690 | 6.12190 | 1372 ft | 81 kts | 225° |
| 2026-05-05 20:35 | 46.24155 | 6.11405 | 1376 ft | 135 kts | 225° |
| 2026-05-05 20:36 | 46.23391 | 6.10297 | 1454 ft | 170 kts | 225° |
| 2026-05-05 20:36 | 46.22550 | 6.09101 | 2086 ft | 171 kts | 225° |
| 2026-05-05 20:36 | 46.21693 | 6.07905 | 2751 ft | 171 kts | 223° |
| 2026-05-05 20:36 | 46.20892 | 6.06617 | 3285 ft | 176 kts | 238° |
| 2026-05-05 20:37 | 46.20529 | 6.04869 | 3698 ft | 193 kts | 264° |
| 2026-05-05 20:37 | 46.20764 | 6.02883 | 4102 ft | 211 kts | 288° |
| 2026-05-05 20:37 | 46.21614 | 6.01070 | 4575 ft | 227 kts | 311° |
| 2026-05-05 20:37 | 46.23004 | 5.99775 | 4953 ft | 255 kts | 338° |
| 2026-05-05 20:38 | 46.24855 | 5.99640 | 5344 ft | 283 kts | 14° |
| 2026-05-05 20:38 | 46.26564 | 6.01093 | 6003 ft | 293 kts | 46° |
| 2026-05-05 20:38 | 46.27946 | 6.03301 | 6763 ft | 298 kts | 51° |
| 2026-05-05 20:38 | 46.29244 | 6.05654 | 7568 ft | 301 kts | 53° |
| 2026-05-05 20:39 | 46.30521 | 6.08074 | 8377 ft | 304 kts | 54° |
| 2026-05-05 20:39 | 46.31806 | 6.10522 | 9199 ft | 307 kts | 53° |
| 2026-05-05 20:39 | 46.33117 | 6.12979 | 9988 ft | 310 kts | 53° |
| 2026-05-05 20:39 | 46.34481 | 6.15491 | 10385 ft | 328 kts | 52° |
| 2026-05-05 20:40 | 46.35994 | 6.18050 | 10621 ft | 349 kts | 44° |
| 2026-05-05 20:40 | 46.37823 | 6.20432 | 11204 ft | 356 kts | 41° |
| 2026-05-05 20:40 | 46.39680 | 6.22837 | 11905 ft | 360 kts | 42° |
| 2026-05-05 20:40 | 46.41555 | 6.25290 | 12528 ft | 366 kts | 43° |
| 2026-05-05 20:41 | 46.43438 | 6.27791 | 13242 ft | 368 kts | 43° |
| 2026-05-05 20:41 | 46.45330 | 6.30330 | 13871 ft | 373 kts | 43° |
| 2026-05-05 20:41 | 46.47239 | 6.32904 | 14487 ft | 376 kts | 43° |
| 2026-05-05 20:41 | 46.49160 | 6.35491 | 15104 ft | 379 kts | 43° |
| 2026-05-05 20:42 | 46.51104 | 6.38104 | 15688 ft | 383 kts | 43° |
| 2026-05-05 20:42 | 46.53047 | 6.40759 | 16304 ft | 385 kts | 47° |
| 2026-05-05 20:42 | 46.54687 | 6.43845 | 16872 ft | 387 kts | 61° |
| 2026-05-05 20:42 | 46.55841 | 6.47376 | 17430 ft | 388 kts | 73° |
| 2026-05-05 20:43 | 46.56494 | 6.51173 | 17962 ft | 388 kts | 85° |
| 2026-05-05 20:43 | 46.56631 | 6.55085 | 18467 ft | 388 kts | 96° |
| 2026-05-05 20:43 | 46.56539 | 6.59008 | 18977 ft | 390 kts | 96° |
| 2026-05-05 20:43 | 46.56443 | 6.62959 | 19496 ft | 393 kts | 96° |
| 2026-05-05 20:44 | 46.56348 | 6.66936 | 20012 ft | 395 kts | 96° |
| 2026-05-05 20:44 | 46.56251 | 6.70940 | 20526 ft | 397 kts | 96° |
| 2026-05-05 20:44 | 46.56152 | 6.74962 | 20999 ft | 400 kts | 96° |
| 2026-05-05 20:44 | 46.56049 | 6.79011 | 21482 ft | 402 kts | 96° |
| 2026-05-05 20:45 | 46.56607 | 6.87176 | 22432 ft | 416 kts | 77° |
| 2026-05-05 20:45 | 46.57682 | 6.91099 | 22918 ft | 420 kts | 65° |
| 2026-05-05 20:45 | 46.59268 | 6.94689 | 23409 ft | 425 kts | 53° |
| 2026-05-05 20:46 | 46.61139 | 6.98041 | 23785 ft | 428 kts | 52° |
| 2026-05-05 20:46 | 46.63022 | 7.01411 | 24125 ft | 431 kts | 53° |
| 2026-05-05 20:46 | 46.64912 | 7.04809 | 24474 ft | 434 kts | 53° |
| 2026-05-05 20:46 | 46.66815 | 7.08239 | 24805 ft | 437 kts | 53° |
| 2026-05-05 20:47 | 46.68731 | 7.11700 | 25126 ft | 440 kts | 53° |
| 2026-05-05 20:47 | 46.70654 | 7.15188 | 25457 ft | 443 kts | 53° |
| 2026-05-05 20:47 | 46.72588 | 7.18702 | 25776 ft | 446 kts | 53° |
| 2026-05-05 20:47 | 46.74536 | 7.22244 | 26104 ft | 449 kts | 53° |
| 2026-05-05 20:48 | 46.76494 | 7.25807 | 26441 ft | 451 kts | 53° |
| 2026-05-05 20:48 | 46.78466 | 7.29391 | 26765 ft | 454 kts | 53° |
| 2026-05-05 20:48 | 46.80447 | 7.32993 | 27091 ft | 456 kts | 53° |
| 2026-05-05 20:48 | 46.82436 | 7.36622 | 27358 ft | 460 kts | 52° |
| 2026-05-05 20:49 | 46.84440 | 7.40289 | 27623 ft | 463 kts | 52° |
| 2026-05-05 20:49 | 46.86457 | 7.43978 | 27915 ft | 467 kts | 52° |
| 2026-05-05 20:49 | 46.88489 | 7.47700 | 28204 ft | 470 kts | 52° |
| 2026-05-05 20:49 | 46.90533 | 7.51455 | 28444 ft | 473 kts | 52° |
| 2026-05-05 20:50 | 46.92584 | 7.55233 | 28749 ft | 476 kts | 52° |
| 2026-05-05 20:50 | 46.94646 | 7.59037 | 29109 ft | 477 kts | 52° |
| 2026-05-05 20:50 | 46.96707 | 7.62836 | 29469 ft | 478 kts | 52° |
| 2026-05-05 20:50 | 46.98776 | 7.66656 | 29747 ft | 480 kts | 52° |
| 2026-05-05 20:51 | 47.00856 | 7.70504 | 30012 ft | 482 kts | 52° |
| 2026-05-05 20:51 | 47.02940 | 7.74366 | 30234 ft | 485 kts | 52° |
| 2026-05-05 20:51 | 47.05034 | 7.78254 | 30460 ft | 487 kts | 52° |
| 2026-05-05 20:51 | 47.07132 | 7.82159 | 30696 ft | 489 kts | 52° |
| 2026-05-05 20:52 | 47.09242 | 7.86087 | 30920 ft | 490 kts | 52° |
| 2026-05-05 20:52 | 47.11347 | 7.90012 | 31230 ft | 489 kts | 52° |
| 2026-05-05 20:52 | 47.13427 | 7.93949 | 31660 ft | 486 kts | 56° |
| 2026-05-05 20:52 | 47.15265 | 7.98101 | 32006 ft | 484 kts | 59° |
| 2026-05-05 20:53 | 47.17051 | 8.02282 | 32325 ft | 483 kts | 59° |
| 2026-05-05 20:53 | 47.18813 | 8.06410 | 32632 ft | 483 kts | 59° |
| 2026-05-05 20:53 | 47.20597 | 8.10592 | 32935 ft | 483 kts | 59° |
| 2026-05-05 20:53 | 47.22399 | 8.14830 | 33253 ft | 482 kts | 59° |
| 2026-05-05 20:54 | 47.24175 | 8.19020 | 33548 ft | 482 kts | 59° |
| 2026-05-05 20:54 | 47.25946 | 8.23208 | 33843 ft | 482 kts | 59° |
| 2026-05-05 20:54 | 47.27721 | 8.27395 | 34109 ft | 482 kts | 58° |
| 2026-05-05 20:54 | 47.29733 | 8.31350 | 34324 ft | 483 kts | 49° |
| 2026-05-05 20:55 | 47.32124 | 8.34834 | 34540 ft | 484 kts | 39° |
| 2026-05-05 20:55 | 47.34793 | 8.37738 | 34767 ft | 483 kts | 32° |
| 2026-05-05 20:55 | 47.37647 | 8.40480 | 34999 ft | 483 kts | 32° |
| 2026-05-05 20:55 | 47.40459 | 8.43195 | 35234 ft | 483 kts | 33° |
| 2026-05-05 20:56 | 47.43227 | 8.45882 | 35446 ft | 482 kts | 33° |
| 2026-05-05 20:56 | 47.46029 | 8.48609 | 35677 ft | 482 kts | 33° |
| 2026-05-05 20:56 | 47.48830 | 8.51334 | 35911 ft | 482 kts | 33° |
| 2026-05-05 20:56 | 47.51627 | 8.54056 | 36132 ft | 481 kts | 33° |
| 2026-05-05 20:57 | 47.54418 | 8.56769 | 36358 ft | 480 kts | 33° |
| 2026-05-05 20:57 | 47.57209 | 8.59485 | 36561 ft | 480 kts | 33° |
| 2026-05-05 20:57 | 47.59992 | 8.62198 | 36755 ft | 479 kts | 33° |
| 2026-05-05 20:57 | 47.62776 | 8.64915 | 36895 ft | 479 kts | 33° |
| 2026-05-05 20:58 | 47.68330 | 8.70346 | 36924 ft | 477 kts | 33° |
| 2026-05-05 20:58 | 47.73851 | 8.75765 | 36915 ft | 475 kts | 33° |
| 2026-05-05 20:59 | 47.79356 | 8.81183 | 36896 ft | 475 kts | 33° |
| 2026-05-05 20:59 | 47.84862 | 8.86609 | 36897 ft | 474 kts | 33° |
| 2026-05-05 21:00 | 47.90360 | 8.92049 | 36879 ft | 474 kts | 33° |
| 2026-05-05 21:00 | 47.95856 | 8.97497 | 36885 ft | 475 kts | 33° |
| 2026-05-05 21:01 | 48.01352 | 9.02965 | 36888 ft | 475 kts | 33° |
| 2026-05-05 21:01 | 48.06848 | 9.08445 | 36882 ft | 475 kts | 33° |
| 2026-05-05 21:02 | 48.12335 | 9.13926 | 36893 ft | 474 kts | 34° |
| 2026-05-05 21:02 | 48.18166 | 9.18436 | 36893 ft | 472 kts | 17° |
| 2026-05-05 21:03 | 48.24543 | 9.20595 | 36882 ft | 470 kts | 9° |
| 2026-05-05 21:03 | 48.30964 | 9.22469 | 36880 ft | 470 kts | 9° |
| 2026-05-05 21:04 | 48.37383 | 9.24366 | 36873 ft | 470 kts | 10° |
| 2026-05-05 21:04 | 48.43796 | 9.26281 | 36869 ft | 470 kts | 10° |
| 2026-05-05 21:05 | 48.50217 | 9.28201 | 36864 ft | 470 kts | 10° |
| 2026-05-05 21:05 | 48.56632 | 9.30123 | 36867 ft | 470 kts | 10° |
| 2026-05-05 21:06 | 48.63049 | 9.32035 | 36870 ft | 470 kts | 10° |
| 2026-05-05 21:06 | 48.69469 | 9.33958 | 36870 ft | 470 kts | 10° |
| 2026-05-05 21:07 | 48.75886 | 9.35896 | 36872 ft | 470 kts | 10° |
| 2026-05-05 21:07 | 48.82297 | 9.37832 | 36860 ft | 470 kts | 10° |
| 2026-05-05 21:08 | 48.88711 | 9.39766 | 36858 ft | 470 kts | 10° |
| 2026-05-05 21:08 | 48.95120 | 9.41702 | 36865 ft | 470 kts | 10° |
| 2026-05-05 21:09 | 49.01530 | 9.43643 | 36871 ft | 469 kts | 10° |
| 2026-05-05 21:09 | 49.07934 | 9.45593 | 36872 ft | 469 kts | 10° |
| 2026-05-05 21:10 | 49.14291 | 9.47539 | 36871 ft | 469 kts | 11° |
| 2026-05-05 21:10 | 49.20681 | 9.49503 | 36871 ft | 468 kts | 11° |
| 2026-05-05 21:11 | 49.27069 | 9.51470 | 36857 ft | 468 kts | 11° |
| 2026-05-05 21:11 | 49.33451 | 9.53441 | 36851 ft | 468 kts | 11° |
| 2026-05-05 21:12 | 49.39834 | 9.55404 | 36849 ft | 467 kts | 11° |
| 2026-05-05 21:12 | 49.46209 | 9.57364 | 36849 ft | 467 kts | 11° |
| 2026-05-05 21:13 | 49.52579 | 9.59335 | 36851 ft | 467 kts | 11° |
| 2026-05-05 21:13 | 49.58949 | 9.61314 | 36850 ft | 467 kts | 11° |
| 2026-05-05 21:14 | 49.65311 | 9.63301 | 36847 ft | 466 kts | 11° |
| 2026-05-05 21:14 | 49.71668 | 9.65303 | 36844 ft | 466 kts | 11° |
| 2026-05-05 21:15 | 49.78021 | 9.67301 | 36841 ft | 466 kts | 11° |
| 2026-05-05 21:15 | 49.84374 | 9.69291 | 36843 ft | 466 kts | 12° |
| 2026-05-05 21:16 | 49.90723 | 9.71280 | 36841 ft | 465 kts | 12° |
| 2026-05-05 21:16 | 49.97071 | 9.73291 | 36840 ft | 465 kts | 12° |
| 2026-05-05 21:17 | 50.03410 | 9.75310 | 36844 ft | 465 kts | 12° |
| 2026-05-05 21:17 | 50.09746 | 9.77323 | 36845 ft | 465 kts | 12° |
| 2026-05-05 21:18 | 50.15010 | 9.78997 | 36846 ft | 464 kts | 12° |
| 2026-05-05 21:18 | 50.21340 | 9.81024 | 36844 ft | 464 kts | 12° |
| 2026-05-05 21:19 | 50.27662 | 9.83047 | 36840 ft | 464 kts | 12° |
| 2026-05-05 21:19 | 50.33984 | 9.85084 | 36839 ft | 464 kts | 12° |
| 2026-05-05 21:20 | 50.40055 | 9.88297 | 36831 ft | 460 kts | 30° |
| 2026-05-05 21:20 | 50.45141 | 9.94235 | 36825 ft | 455 kts | 49° |
| 2026-05-05 21:21 | 50.49485 | 10.01457 | 36818 ft | 455 kts | 49° |
| 2026-05-05 21:21 | 50.53834 | 10.08698 | 36811 ft | 456 kts | 49° |
| 2026-05-05 21:22 | 50.58185 | 10.15962 | 36816 ft | 456 kts | 49° |
| 2026-05-05 21:22 | 50.62528 | 10.23245 | 36814 ft | 456 kts | 49° |
| 2026-05-05 21:23 | 50.66425 | 10.31047 | 36789 ft | 451 kts | 64° |
| 2026-05-05 21:23 | 50.69410 | 10.39721 | 36792 ft | 450 kts | 65° |
| 2026-05-05 21:24 | 50.72395 | 10.48420 | 36800 ft | 451 kts | 65° |
| 2026-05-05 21:24 | 50.75377 | 10.57132 | 36798 ft | 451 kts | 65° |
| 2026-05-05 21:25 | 50.78354 | 10.65857 | 36804 ft | 451 kts | 65° |
| 2026-05-05 21:25 | 50.81322 | 10.74603 | 36804 ft | 451 kts | 65° |
| 2026-05-05 21:26 | 50.84283 | 10.83349 | 36797 ft | 452 kts | 65° |
| 2026-05-05 21:26 | 50.87248 | 10.92124 | 36784 ft | 452 kts | 65° |
| 2026-05-05 21:27 | 50.90211 | 11.00926 | 36787 ft | 453 kts | 65° |
| 2026-05-05 21:27 | 50.93170 | 11.09756 | 36791 ft | 454 kts | 65° |
| 2026-05-05 21:28 | 50.96098 | 11.18545 | 36795 ft | 454 kts | 65° |
| 2026-05-05 21:28 | 50.99043 | 11.27406 | 36788 ft | 454 kts | 65° |
| 2026-05-05 21:29 | 51.01991 | 11.36273 | 36793 ft | 454 kts | 65° |
| 2026-05-05 21:29 | 51.04931 | 11.45171 | 36761 ft | 455 kts | 66° |
| 2026-05-05 21:30 | 51.07884 | 11.54157 | 36775 ft | 456 kts | 66° |
| 2026-05-05 21:30 | 51.10795 | 11.63058 | 36782 ft | 457 kts | 66° |
| 2026-05-05 21:31 | 51.12262 | 11.67563 | 36502 ft | 458 kts | 66° |
| 2026-05-05 21:31 | 51.13724 | 11.72056 | 35962 ft | 456 kts | 66° |
| 2026-05-05 21:31 | 51.15179 | 11.76526 | 35453 ft | 452 kts | 66° |
| 2026-05-05 21:31 | 51.16623 | 11.80956 | 34941 ft | 449 kts | 66° |
| 2026-05-05 21:32 | 51.18053 | 11.85355 | 34430 ft | 446 kts | 66° |
| 2026-05-05 21:32 | 51.19468 | 11.89728 | 33912 ft | 443 kts | 67° |
| 2026-05-05 21:32 | 51.21000 | 11.93984 | 33314 ft | 444 kts | 59° |
| 2026-05-05 21:32 | 51.22932 | 11.97835 | 32665 ft | 446 kts | 50° |
| 2026-05-05 21:33 | 51.25073 | 12.01411 | 32054 ft | 445 kts | 49° |
| 2026-05-05 21:33 | 51.27210 | 12.04982 | 31450 ft | 444 kts | 49° |
| 2026-05-05 21:33 | 51.29336 | 12.08543 | 30876 ft | 442 kts | 50° |
| 2026-05-05 21:33 | 51.31453 | 12.12104 | 30306 ft | 441 kts | 50° |
| 2026-05-05 21:34 | 51.33554 | 12.15655 | 29723 ft | 439 kts | 50° |
| 2026-05-05 21:34 | 51.35647 | 12.19197 | 29082 ft | 437 kts | 50° |
| 2026-05-05 21:34 | 51.37729 | 12.22728 | 28449 ft | 435 kts | 50° |
| 2026-05-05 21:34 | 51.39803 | 12.26246 | 27825 ft | 433 kts | 49° |
| 2026-05-05 21:35 | 51.41868 | 12.29754 | 27216 ft | 432 kts | 49° |
| 2026-05-05 21:35 | 51.43921 | 12.33245 | 26625 ft | 430 kts | 49° |
| 2026-05-05 21:35 | 51.45959 | 12.36715 | 26040 ft | 428 kts | 49° |
| 2026-05-05 21:35 | 51.48000 | 12.40187 | 25467 ft | 426 kts | 49° |
| 2026-05-05 21:36 | 51.50023 | 12.43635 | 24908 ft | 424 kts | 49° |
| 2026-05-05 21:36 | 51.52034 | 12.47074 | 24357 ft | 421 kts | 49° |
| 2026-05-05 21:36 | 51.54031 | 12.50496 | 23821 ft | 419 kts | 49° |
| 2026-05-05 21:36 | 51.56014 | 12.53902 | 23273 ft | 416 kts | 49° |
| 2026-05-05 21:37 | 51.57988 | 12.57292 | 22646 ft | 415 kts | 49° |
| 2026-05-05 21:37 | 51.59954 | 12.60670 | 22032 ft | 413 kts | 49° |
| 2026-05-05 21:37 | 51.61912 | 12.64036 | 21431 ft | 412 kts | 48° |
| 2026-05-05 21:37 | 51.63872 | 12.67412 | 20823 ft | 410 kts | 49° |
| 2026-05-05 21:38 | 51.65815 | 12.70765 | 20248 ft | 409 kts | 49° |
| 2026-05-05 21:38 | 51.67751 | 12.74107 | 19681 ft | 407 kts | 49° |
| 2026-05-05 21:38 | 51.69732 | 12.77352 | 19125 ft | 407 kts | 40° |
| 2026-05-05 21:38 | 51.72104 | 12.79628 | 18579 ft | 399 kts | 21° |
| 2026-05-05 21:39 | 51.74762 | 12.80587 | 18038 ft | 386 kts | 6° |
| 2026-05-05 21:39 | 51.77393 | 12.80657 | 17423 ft | 373 kts | 349° |
| 2026-05-05 21:39 | 51.79798 | 12.79356 | 16825 ft | 360 kts | 328° |
| 2026-05-05 21:39 | 51.81757 | 12.76959 | 16235 ft | 349 kts | 316° |
| 2026-05-05 21:40 | 51.83531 | 12.74365 | 15739 ft | 339 kts | 315° |
| 2026-05-05 21:40 | 51.85252 | 12.71818 | 15253 ft | 331 kts | 315° |
| 2026-05-05 21:40 | 51.86932 | 12.69316 | 14766 ft | 326 kts | 315° |
| 2026-05-05 21:40 | 51.88590 | 12.66837 | 14284 ft | 323 kts | 315° |
| 2026-05-05 21:41 | 51.90230 | 12.64371 | 13810 ft | 320 kts | 315° |
| 2026-05-05 21:41 | 51.91871 | 12.61887 | 13307 ft | 325 kts | 315° |
| 2026-05-05 21:41 | 51.93525 | 12.59364 | 12781 ft | 328 kts | 315° |
| 2026-05-05 21:41 | 51.95186 | 12.56809 | 12266 ft | 330 kts | 315° |
| 2026-05-05 21:42 | 51.96851 | 12.54226 | 11758 ft | 332 kts | 315° |
| 2026-05-05 21:42 | 51.98518 | 12.51621 | 11251 ft | 334 kts | 315° |
| 2026-05-05 21:42 | 52.00187 | 12.48991 | 10757 ft | 335 kts | 315° |
| 2026-05-05 21:42 | 52.01853 | 12.46345 | 10276 ft | 335 kts | 315° |
| 2026-05-05 21:43 | 52.03503 | 12.43692 | 9786 ft | 329 kts | 315° |
| 2026-05-05 21:43 | 52.05095 | 12.41107 | 9266 ft | 318 kts | 315° |
| 2026-05-05 21:43 | 52.06628 | 12.38607 | 8743 ft | 308 kts | 315° |
| 2026-05-05 21:43 | 52.08119 | 12.36170 | 8227 ft | 300 kts | 315° |
| 2026-05-05 21:44 | 52.09755 | 12.34208 | 7726 ft | 288 kts | 339° |
| 2026-05-05 21:44 | 52.11677 | 12.33620 | 7270 ft | 280 kts | 7° |
| 2026-05-05 21:44 | 52.13502 | 12.34528 | 6928 ft | 274 kts | 33° |
| 2026-05-05 21:44 | 52.14823 | 12.36694 | 6680 ft | 271 kts | 62° |
| 2026-05-05 21:45 | 52.15391 | 12.39565 | 6432 ft | 268 kts | 82° |
| 2026-05-05 21:45 | 52.15491 | 12.42587 | 6189 ft | 268 kts | 90° |
| 2026-05-05 21:45 | 52.15520 | 12.45619 | 5930 ft | 267 kts | 90° |
| 2026-05-05 21:45 | 52.15545 | 12.48626 | 5673 ft | 265 kts | 90° |
| 2026-05-05 21:46 | 52.15567 | 12.51614 | 5418 ft | 264 kts | 90° |
| 2026-05-05 21:46 | 52.15641 | 12.54602 | 5164 ft | 264 kts | 81° |
| 2026-05-05 21:46 | 52.15987 | 12.57530 | 4945 ft | 261 kts | 79° |
| 2026-05-05 21:46 | 52.16336 | 12.60385 | 4968 ft | 261 kts | 79° |
| 2026-05-05 21:47 | 52.16699 | 12.63339 | 4979 ft | 263 kts | 79° |
| 2026-05-05 21:47 | 52.17059 | 12.66264 | 4980 ft | 263 kts | 79° |
| 2026-05-05 21:47 | 52.17568 | 12.69120 | 4983 ft | 263 kts | 69° |
| 2026-05-05 21:47 | 52.18251 | 12.71861 | 4980 ft | 263 kts | 69° |
| 2026-05-05 21:48 | 52.18935 | 12.74623 | 4964 ft | 255 kts | 69° |
| 2026-05-05 21:48 | 52.19574 | 12.77210 | 4978 ft | 238 kts | 69° |
| 2026-05-05 21:48 | 52.20169 | 12.79628 | 4977 ft | 225 kts | 69° |
| 2026-05-05 21:48 | 52.20732 | 12.81945 | 4958 ft | 223 kts | 69° |
| 2026-05-05 21:49 | 52.21299 | 12.84288 | 4811 ft | 221 kts | 69° |
| 2026-05-05 21:49 | 52.21864 | 12.86606 | 4663 ft | 219 kts | 69° |
| 2026-05-05 21:49 | 52.22429 | 12.88909 | 4512 ft | 218 kts | 69° |
| 2026-05-05 21:49 | 52.22992 | 12.91208 | 4358 ft | 219 kts | 68° |
| 2026-05-05 21:50 | 52.23547 | 12.93513 | 4203 ft | 218 kts | 70° |
| 2026-05-05 21:50 | 52.24085 | 12.95801 | 4045 ft | 216 kts | 69° |
| 2026-05-05 21:50 | 52.24634 | 12.98079 | 3897 ft | 215 kts | 69° |
| 2026-05-05 21:50 | 52.25184 | 13.00344 | 3794 ft | 214 kts | 69° |
| 2026-05-05 21:51 | 52.25733 | 13.02601 | 3795 ft | 214 kts | 69° |
| 2026-05-05 21:51 | 52.26281 | 13.04858 | 3795 ft | 214 kts | 69° |
| 2026-05-05 21:51 | 52.26831 | 13.07126 | 3795 ft | 215 kts | 69° |
| 2026-05-05 21:51 | 52.27381 | 13.09396 | 3795 ft | 215 kts | 69° |
| 2026-05-05 21:52 | 52.28478 | 13.13931 | 3795 ft | 216 kts | 69° |
| 2026-05-05 21:52 | 52.29031 | 13.16218 | 3791 ft | 217 kts | 69° |
| 2026-05-05 21:52 | 52.29583 | 13.18507 | 3792 ft | 216 kts | 69° |
| 2026-05-05 21:53 | 52.30133 | 13.20790 | 3677 ft | 216 kts | 69° |
| 2026-05-05 21:53 | 52.30668 | 13.23009 | 3439 ft | 215 kts | 69° |
| 2026-05-05 21:53 | 52.31215 | 13.25286 | 3168 ft | 215 kts | 69° |
| 2026-05-05 21:53 | 52.31760 | 13.27552 | 2876 ft | 212 kts | 69° |
| 2026-05-05 21:54 | 52.32288 | 13.29751 | 2596 ft | 203 kts | 69° |
| 2026-05-05 21:54 | 52.32779 | 13.31797 | 2354 ft | 185 kts | 69° |
| 2026-05-05 21:54 | 52.33226 | 13.33661 | 2123 ft | 168 kts | 69° |
| 2026-05-05 21:54 | 52.33636 | 13.35372 | 1885 ft | 157 kts | 69° |
| 2026-05-05 21:55 | 52.34018 | 13.36970 | 1697 ft | 145 kts | 69° |
| 2026-05-05 21:55 | 52.34370 | 13.38444 | 1489 ft | 136 kts | 69° |
| 2026-05-05 21:55 | 52.34710 | 13.39868 | 1302 ft | 134 kts | 70° |
| 2026-05-05 21:55 | 52.35045 | 13.41272 | 1119 ft | 131 kts | 69° |
| 2026-05-05 21:56 | 52.35382 | 13.42672 | 938 ft | 133 kts | 67° |
| 2026-05-05 21:56 | 52.35721 | 13.44069 | 741 ft | 131 kts | 66° |
| 2026-05-05 21:56 | 52.36048 | 13.45464 | 584 ft | 132 kts | 65° |
| 2026-05-05 21:56 | 52.36387 | 13.46870 | 418 ft | 132 kts | 67° |
| 2026-05-05 21:57 | 52.36716 | 13.48272 | 240 ft | 132 kts | 67° |
| 2026-05-05 21:57 | 52.37033 | 13.49630 | 157 ft | 118 kts | 66° |
| 2026-05-05 21:57 | 52.37282 | 13.50661 | 155 ft | 74 kts | 69° |
| 2026-05-05 21:57 | 52.37434 | 13.51302 | 155 ft | 48 kts | 71° |
| 2026-05-05 21:58 | 52.37449 | 13.51643 | 155 ft | 20 kts | 98° |
| 2026-05-05 21:58 | 52.37434 | 13.51799 | 155 ft | 14 kts | 99° |
| 2026-05-05 21:58 | 52.37411 | 13.51958 | 155 ft | 15 kts | 117° |
| 2026-05-05 21:58 | 52.37324 | 13.52045 | 155 ft | 13 kts | 160° |
| 2026-05-05 21:59 | 52.37264 | 13.51990 | 155 ft | 11 kts | 249° |
| 2026-05-05 21:59 | 52.37238 | 13.51879 | 155 ft | 10 kts | 249° |
| 2026-05-05 21:59 | 52.37216 | 13.51785 | 155 ft | 9 kts | 249° |
| 2026-05-05 21:59 | 52.37193 | 13.51688 | 155 ft | 13 kts | 249° |
| 2026-05-05 22:00 | 52.37144 | 13.51482 | 155 ft | 24 kts | 249° |
| 2026-05-05 22:00 | 52.37084 | 13.51226 | 155 ft | 24 kts | 248° |
| 2026-05-05 22:00 | 52.37025 | 13.50981 | 155 ft | 23 kts | 249° |
| 2026-05-05 22:00 | 52.36969 | 13.50746 | 155 ft | 21 kts | 249° |
| 2026-05-05 22:01 | 52.36919 | 13.50530 | 155 ft | 20 kts | 249° |
| 2026-05-05 22:01 | 52.36873 | 13.50343 | 155 ft | 13 kts | 249° |
| 2026-05-05 22:01 | 52.36843 | 13.50210 | 155 ft | 12 kts | 249° |
| 2026-05-05 22:01 | 52.36780 | 13.50192 | 155 ft | 10 kts | 150° |
| 2026-05-05 22:02 | 52.36761 | 13.50274 | 155 ft | 8 kts | 71° |
| 2026-05-05 22:02 | 52.36782 | 13.50368 | 157 ft | 12 kts | 69° |
| 2026-05-05 22:02 | 52.36818 | 13.50521 | 155 ft | 13 kts | 69° |
| 2026-05-05 22:02 | 52.36779 | 13.50609 | 157 ft | 10 kts | 159° |
| 2026-05-05 22:03 | 52.36754 | 13.50624 | 155 ft | 0 kts | 157° |